sensor_id;sensor_type;location;lat;lon;timestamp;P1;durP1;ratioP1;P2;durP2;ratioP2
8297;SDS011;4187;42.778;23.242;2023-02-15T00:00:53;33.37;;;24.33;;
8297;SDS011;4187;42.778;23.242;2023-02-15T00:03:20;38.97;;;26.70;;
8297;SDS011;4187;42.778;23.242;2023-02-15T00:05:47;35.03;;;25.27;;
8297;SDS011;4187;42.778;23.242;2023-02-15T00:08:14;36.63;;;25.70;;
8297;SDS011;4187;42.778;23.242;2023-02-15T00:10:41;38.07;;;26.80;;
8297;SDS011;4187;42.778;23.242;2023-02-15T00:13:09;35.67;;;25.83;;
8297;SDS011;4187;42.778;23.242;2023-02-15T00:15:36;35.70;;;24.83;;
8297;SDS011;4187;42.778;23.242;2023-02-15T00:18:03;37.87;;;26.53;;
8297;SDS011;4187;42.778;23.242;2023-02-15T00:20:30;39.27;;;27.87;;
8297;SDS011;4187;42.778;23.242;2023-02-15T00:22:56;38.23;;;26.80;;
8297;SDS011;4187;42.778;23.242;2023-02-15T00:25:23;35.07;;;26.37;;
8297;SDS011;4187;42.778;23.242;2023-02-15T00:27:53;40.70;;;27.47;;
8297;SDS011;4187;42.778;23.242;2023-02-15T00:30:21;36.40;;;26.67;;
8297;SDS011;4187;42.778;23.242;2023-02-15T00:32:48;38.50;;;28.23;;
8297;SDS011;4187;42.778;23.242;2023-02-15T00:35:15;37.43;;;27.17;;
8297;SDS011;4187;42.778;23.242;2023-02-15T00:37:42;42.50;;;28.83;;
8297;SDS011;4187;42.778;23.242;2023-02-15T00:40:09;37.77;;;25.70;;
8297;SDS011;4187;42.778;23.242;2023-02-15T00:42:36;39.33;;;25.97;;
8297;SDS011;4187;42.778;23.242;2023-02-15T00:45:03;38.20;;;26.50;;
8297;SDS011;4187;42.778;23.242;2023-02-15T00:47:31;35.97;;;26.37;;
8297;SDS011;4187;42.778;23.242;2023-02-15T00:49:58;36.43;;;25.53;;
8297;SDS011;4187;42.778;23.242;2023-02-15T00:52:25;37.13;;;25.43;;
8297;SDS011;4187;42.778;23.242;2023-02-15T00:54:52;39.17;;;26.77;;
8297;SDS011;4187;42.778;23.242;2023-02-15T00:57:19;36.67;;;26.70;;
8297;SDS011;4187;42.778;23.242;2023-02-15T00:59:46;34.70;;;25.40;;
8297;SDS011;4187;42.778;23.242;2023-02-15T01:02:12;37.13;;;25.97;;
8297;SDS011;4187;42.778;23.242;2023-02-15T01:04:41;33.00;;;24.70;;
8297;SDS011;4187;42.778;23.242;2023-02-15T01:07:07;36.30;;;26.33;;
8297;SDS011;4187;42.778;23.242;2023-02-15T01:09:34;39.43;;;26.97;;
8297;SDS011;4187;42.778;23.242;2023-02-15T01:12:01;40.10;;;26.77;;
8297;SDS011;4187;42.778;23.242;2023-02-15T01:14:28;34.47;;;25.90;;
8297;SDS011;4187;42.778;23.242;2023-02-15T01:16:54;35.67;;;27.57;;
8297;SDS011;4187;42.778;23.242;2023-02-15T01:19:21;37.73;;;25.40;;
8297;SDS011;4187;42.778;23.242;2023-02-15T01:21:49;35.97;;;26.20;;
8297;SDS011;4187;42.778;23.242;2023-02-15T01:24:16;34.70;;;25.40;;
8297;SDS011;4187;42.778;23.242;2023-02-15T01:26:43;32.83;;;24.70;;
8297;SDS011;4187;42.778;23.242;2023-02-15T01:29:10;35.47;;;25.63;;
8297;SDS011;4187;42.778;23.242;2023-02-15T01:31:36;35.37;;;26.67;;
8297;SDS011;4187;42.778;23.242;2023-02-15T01:34:04;33.13;;;25.53;;
8297;SDS011;4187;42.778;23.242;2023-02-15T01:36:30;35.67;;;27.13;;
8297;SDS011;4187;42.778;23.242;2023-02-15T01:39:01;35.60;;;25.30;;
8297;SDS011;4187;42.778;23.242;2023-02-15T01:41:28;35.03;;;25.43;;
8297;SDS011;4187;42.778;23.242;2023-02-15T01:43:56;36.73;;;27.00;;
8297;SDS011;4187;42.778;23.242;2023-02-15T01:46:26;35.97;;;25.57;;
8297;SDS011;4187;42.778;23.242;2023-02-15T01:48:58;35.80;;;26.07;;
8297;SDS011;4187;42.778;23.242;2023-02-15T01:51:29;38.50;;;25.97;;
8297;SDS011;4187;42.778;23.242;2023-02-15T01:54:01;32.67;;;24.73;;
8297;SDS011;4187;42.778;23.242;2023-02-15T01:56:33;36.47;;;25.10;;
8297;SDS011;4187;42.778;23.242;2023-02-15T01:59:03;34.50;;;24.77;;
8297;SDS011;4187;42.778;23.242;2023-02-15T02:01:33;33.33;;;24.40;;
8297;SDS011;4187;42.778;23.242;2023-02-15T02:04:02;35.93;;;25.87;;
8297;SDS011;4187;42.778;23.242;2023-02-15T02:06:35;33.73;;;25.60;;
8297;SDS011;4187;42.778;23.242;2023-02-15T02:09:05;35.50;;;24.57;;
8297;SDS011;4187;42.778;23.242;2023-02-15T02:11:32;33.50;;;23.47;;
8297;SDS011;4187;42.778;23.242;2023-02-15T02:14:01;34.70;;;25.40;;
8297;SDS011;4187;42.778;23.242;2023-02-15T02:16:28;30.37;;;22.83;;
8297;SDS011;4187;42.778;23.242;2023-02-15T02:19:10;33.13;;;25.10;;
8297;SDS011;4187;42.778;23.242;2023-02-15T02:25:10;32.90;;;23.80;;
8297;SDS011;4187;42.778;23.242;2023-02-15T02:27:47;32.40;;;23.87;;
8297;SDS011;4187;42.778;23.242;2023-02-15T02:36:08;32.90;;;24.03;;
8297;SDS011;4187;42.778;23.242;2023-02-15T02:38:52;30.83;;;23.27;;
8297;SDS011;4187;42.778;23.242;2023-02-15T02:41:31;34.57;;;25.00;;
8297;SDS011;4187;42.778;23.242;2023-02-15T02:44:07;32.80;;;23.53;;
8297;SDS011;4187;42.778;23.242;2023-02-15T02:46:39;40.97;;;23.20;;
8297;SDS011;4187;42.778;23.242;2023-02-15T02:49:13;30.97;;;23.90;;
8297;SDS011;4187;42.778;23.242;2023-02-15T02:51:40;31.63;;;22.40;;
8297;SDS011;4187;42.778;23.242;2023-02-15T02:54:07;30.17;;;23.43;;
8297;SDS011;4187;42.778;23.242;2023-02-15T02:56:36;34.57;;;23.50;;
8297;SDS011;4187;42.778;23.242;2023-02-15T02:59:06;34.80;;;24.67;;
8297;SDS011;4187;42.778;23.242;2023-02-15T03:01:39;32.93;;;23.70;;
8297;SDS011;4187;42.778;23.242;2023-02-15T03:04:11;31.47;;;23.17;;
8297;SDS011;4187;42.778;23.242;2023-02-15T03:06:44;32.07;;;23.37;;
8297;SDS011;4187;42.778;23.242;2023-02-15T03:09:18;35.73;;;24.50;;
8297;SDS011;4187;42.778;23.242;2023-02-15T03:11:50;31.57;;;22.67;;
8297;SDS011;4187;42.778;23.242;2023-02-15T03:14:17;31.30;;;22.53;;
8297;SDS011;4187;42.778;23.242;2023-02-15T03:16:46;33.83;;;23.23;;
8297;SDS011;4187;42.778;23.242;2023-02-15T03:19:16;32.03;;;22.47;;
8297;SDS011;4187;42.778;23.242;2023-02-15T03:21:48;32.47;;;22.83;;
8297;SDS011;4187;42.778;23.242;2023-02-15T03:24:23;30.17;;;22.07;;
8297;SDS011;4187;42.778;23.242;2023-02-15T03:26:53;32.20;;;23.80;;
8297;SDS011;4187;42.778;23.242;2023-02-15T03:29:22;31.97;;;23.87;;
8297;SDS011;4187;42.778;23.242;2023-02-15T03:31:53;28.70;;;22.07;;
8297;SDS011;4187;42.778;23.242;2023-02-15T03:34:26;28.67;;;21.47;;
8297;SDS011;4187;42.778;23.242;2023-02-15T03:36:55;32.17;;;23.53;;
8297;SDS011;4187;42.778;23.242;2023-02-15T03:39:28;29.20;;;21.63;;
8297;SDS011;4187;42.778;23.242;2023-02-15T03:42:02;29.00;;;22.73;;
8297;SDS011;4187;42.778;23.242;2023-02-15T03:44:36;33.17;;;21.47;;
8297;SDS011;4187;42.778;23.242;2023-02-15T03:47:12;30.00;;;21.83;;
8297;SDS011;4187;42.778;23.242;2023-02-15T03:49:44;30.43;;;21.47;;
8297;SDS011;4187;42.778;23.242;2023-02-15T03:52:15;29.40;;;22.13;;
8297;SDS011;4187;42.778;23.242;2023-02-15T03:54:43;28.10;;;22.00;;
8297;SDS011;4187;42.778;23.242;2023-02-15T03:57:13;30.77;;;21.90;;
8297;SDS011;4187;42.778;23.242;2023-02-15T04:00:00;26.87;;;21.00;;
8297;SDS011;4187;42.778;23.242;2023-02-15T04:02:50;29.37;;;21.00;;
8297;SDS011;4187;42.778;23.242;2023-02-15T04:05:30;29.13;;;22.13;;
8297;SDS011;4187;42.778;23.242;2023-02-15T04:07:56;29.50;;;22.17;;
8297;SDS011;4187;42.778;23.242;2023-02-15T04:10:23;30.17;;;22.53;;
8297;SDS011;4187;42.778;23.242;2023-02-15T04:13:08;30.00;;;22.23;;
8297;SDS011;4187;42.778;23.242;2023-02-15T04:15:35;31.57;;;22.87;;
8297;SDS011;4187;42.778;23.242;2023-02-15T04:18:15;32.13;;;22.57;;
8297;SDS011;4187;42.778;23.242;2023-02-15T04:20:44;27.90;;;21.60;;
8297;SDS011;4187;42.778;23.242;2023-02-15T04:23:29;31.27;;;20.80;;
8297;SDS011;4187;42.778;23.242;2023-02-15T04:26:14;29.67;;;21.23;;
8297;SDS011;4187;42.778;23.242;2023-02-15T04:28:41;29.73;;;22.50;;
8297;SDS011;4187;42.778;23.242;2023-02-15T04:31:07;28.93;;;22.50;;
8297;SDS011;4187;42.778;23.242;2023-02-15T04:33:34;29.57;;;22.43;;
8297;SDS011;4187;42.778;23.242;2023-02-15T04:36:03;28.40;;;21.57;;
8297;SDS011;4187;42.778;23.242;2023-02-15T04:38:31;30.13;;;22.90;;
8297;SDS011;4187;42.778;23.242;2023-02-15T04:40:58;31.37;;;21.93;;
8297;SDS011;4187;42.778;23.242;2023-02-15T04:43:25;27.60;;;20.67;;
8297;SDS011;4187;42.778;23.242;2023-02-15T04:45:52;31.17;;;22.33;;
8297;SDS011;4187;42.778;23.242;2023-02-15T04:48:21;29.67;;;22.37;;
8297;SDS011;4187;42.778;23.242;2023-02-15T04:50:47;27.67;;;20.90;;
8297;SDS011;4187;42.778;23.242;2023-02-15T04:53:16;27.33;;;21.13;;
8297;SDS011;4187;42.778;23.242;2023-02-15T04:55:43;30.00;;;21.47;;
8297;SDS011;4187;42.778;23.242;2023-02-15T04:58:10;29.57;;;22.53;;
8297;SDS011;4187;42.778;23.242;2023-02-15T05:00:37;29.57;;;20.93;;
8297;SDS011;4187;42.778;23.242;2023-02-15T05:03:03;30.03;;;21.13;;
8297;SDS011;4187;42.778;23.242;2023-02-15T05:05:30;32.40;;;21.80;;
8297;SDS011;4187;42.778;23.242;2023-02-15T05:07:57;28.17;;;21.40;;
8297;SDS011;4187;42.778;23.242;2023-02-15T05:10:25;31.00;;;22.47;;
8297;SDS011;4187;42.778;23.242;2023-02-15T05:12:52;31.37;;;22.57;;
8297;SDS011;4187;42.778;23.242;2023-02-15T05:15:19;31.20;;;22.57;;
8297;SDS011;4187;42.778;23.242;2023-02-15T05:17:46;29.77;;;21.57;;
8297;SDS011;4187;42.778;23.242;2023-02-15T05:20:13;33.53;;;22.43;;
8297;SDS011;4187;42.778;23.242;2023-02-15T05:22:39;28.33;;;21.50;;
8297;SDS011;4187;42.778;23.242;2023-02-15T05:25:07;30.53;;;23.50;;
8297;SDS011;4187;42.778;23.242;2023-02-15T05:27:53;32.33;;;22.93;;
8297;SDS011;4187;42.778;23.242;2023-02-15T05:30:38;29.83;;;22.30;;
8297;SDS011;4187;42.778;23.242;2023-02-15T05:33:05;31.40;;;21.73;;
8297;SDS011;4187;42.778;23.242;2023-02-15T05:35:33;28.70;;;22.60;;
8297;SDS011;4187;42.778;23.242;2023-02-15T05:38:00;32.80;;;23.57;;
8297;SDS011;4187;42.778;23.242;2023-02-15T05:40:27;39.57;;;24.57;;
8297;SDS011;4187;42.778;23.242;2023-02-15T05:42:56;30.70;;;22.37;;
8297;SDS011;4187;42.778;23.242;2023-02-15T05:45:23;31.60;;;23.77;;
8297;SDS011;4187;42.778;23.242;2023-02-15T05:47:50;32.07;;;23.20;;
8297;SDS011;4187;42.778;23.242;2023-02-15T05:50:17;32.87;;;23.50;;
8297;SDS011;4187;42.778;23.242;2023-02-15T05:52:43;32.77;;;24.80;;
8297;SDS011;4187;42.778;23.242;2023-02-15T05:55:10;34.03;;;24.80;;
8297;SDS011;4187;42.778;23.242;2023-02-15T05:57:38;37.10;;;27.23;;
8297;SDS011;4187;42.778;23.242;2023-02-15T06:00:07;43.23;;;30.93;;
8297;SDS011;4187;42.778;23.242;2023-02-15T06:02:35;47.27;;;31.93;;
8297;SDS011;4187;42.778;23.242;2023-02-15T06:05:02;38.33;;;27.27;;
8297;SDS011;4187;42.778;23.242;2023-02-15T06:07:29;37.77;;;26.13;;
8297;SDS011;4187;42.778;23.242;2023-02-15T06:09:56;35.13;;;26.50;;
8297;SDS011;4187;42.778;23.242;2023-02-15T06:12:24;36.83;;;26.90;;
8297;SDS011;4187;42.778;23.242;2023-02-15T06:14:50;35.40;;;24.97;;
8297;SDS011;4187;42.778;23.242;2023-02-15T06:17:19;37.17;;;25.50;;
8297;SDS011;4187;42.778;23.242;2023-02-15T06:19:46;37.20;;;24.93;;
8297;SDS011;4187;42.778;23.242;2023-02-15T06:22:13;34.87;;;24.40;;
8297;SDS011;4187;42.778;23.242;2023-02-15T06:24:40;33.77;;;24.57;;
8297;SDS011;4187;42.778;23.242;2023-02-15T06:27:08;30.70;;;23.00;;
8297;SDS011;4187;42.778;23.242;2023-02-15T06:29:35;30.63;;;22.20;;
8297;SDS011;4187;42.778;23.242;2023-02-15T06:32:01;34.67;;;23.77;;
8297;SDS011;4187;42.778;23.242;2023-02-15T06:34:30;33.10;;;23.43;;
8297;SDS011;4187;42.778;23.242;2023-02-15T06:36:57;32.37;;;22.70;;
8297;SDS011;4187;42.778;23.242;2023-02-15T06:39:23;30.40;;;22.87;;
8297;SDS011;4187;42.778;23.242;2023-02-15T06:41:50;30.63;;;23.43;;
8297;SDS011;4187;42.778;23.242;2023-02-15T06:44:17;33.37;;;22.60;;
8297;SDS011;4187;42.778;23.242;2023-02-15T06:46:44;30.70;;;22.43;;
8297;SDS011;4187;42.778;23.242;2023-02-15T06:49:11;31.63;;;21.77;;
8297;SDS011;4187;42.778;23.242;2023-02-15T06:51:39;33.87;;;23.07;;
8297;SDS011;4187;42.778;23.242;2023-02-15T06:54:06;29.27;;;21.73;;
8297;SDS011;4187;42.778;23.242;2023-02-15T06:56:32;27.10;;;21.07;;
8297;SDS011;4187;42.778;23.242;2023-02-15T06:58:59;28.43;;;21.67;;
8297;SDS011;4187;42.778;23.242;2023-02-15T07:01:27;29.20;;;21.30;;
8297;SDS011;4187;42.778;23.242;2023-02-15T07:03:54;31.47;;;23.83;;
8297;SDS011;4187;42.778;23.242;2023-02-15T07:06:20;29.40;;;21.33;;
8297;SDS011;4187;42.778;23.242;2023-02-15T07:08:49;27.20;;;20.93;;
8297;SDS011;4187;42.778;23.242;2023-02-15T07:11:15;28.93;;;21.57;;
8297;SDS011;4187;42.778;23.242;2023-02-15T07:13:59;29.30;;;22.17;;
8297;SDS011;4187;42.778;23.242;2023-02-15T07:16:26;27.90;;;20.53;;
8297;SDS011;4187;42.778;23.242;2023-02-15T07:18:53;27.47;;;20.83;;
8297;SDS011;4187;42.778;23.242;2023-02-15T07:21:20;28.93;;;21.60;;
8297;SDS011;4187;42.778;23.242;2023-02-15T07:23:46;26.53;;;21.40;;
8297;SDS011;4187;42.778;23.242;2023-02-15T07:26:15;35.43;;;25.33;;
8297;SDS011;4187;42.778;23.242;2023-02-15T07:28:41;39.87;;;26.97;;
8297;SDS011;4187;42.778;23.242;2023-02-15T07:31:08;49.00;;;31.90;;
8297;SDS011;4187;42.778;23.242;2023-02-15T07:33:35;49.60;;;34.37;;
8297;SDS011;4187;42.778;23.242;2023-02-15T07:36:02;45.67;;;29.77;;
8297;SDS011;4187;42.778;23.242;2023-02-15T07:38:30;60.37;;;38.60;;
8297;SDS011;4187;42.778;23.242;2023-02-15T07:41:00;57.20;;;37.87;;
8297;SDS011;4187;42.778;23.242;2023-02-15T07:43:28;46.80;;;32.43;;
8297;SDS011;4187;42.778;23.242;2023-02-15T07:45:58;41.10;;;30.43;;
8297;SDS011;4187;42.778;23.242;2023-02-15T07:48:25;32.87;;;26.33;;
8297;SDS011;4187;42.778;23.242;2023-02-15T07:50:52;31.90;;;24.70;;
8297;SDS011;4187;42.778;23.242;2023-02-15T07:53:19;36.23;;;27.87;;
8297;SDS011;4187;42.778;23.242;2023-02-15T07:55:46;37.40;;;24.77;;
8297;SDS011;4187;42.778;23.242;2023-02-15T07:58:14;31.03;;;24.23;;
8297;SDS011;4187;42.778;23.242;2023-02-15T08:00:41;30.47;;;24.80;;
8297;SDS011;4187;42.778;23.242;2023-02-15T08:03:23;30.03;;;24.33;;
8297;SDS011;4187;42.778;23.242;2023-02-15T08:05:54;29.77;;;23.13;;
8297;SDS011;4187;42.778;23.242;2023-02-15T08:08:22;30.83;;;23.97;;
8297;SDS011;4187;42.778;23.242;2023-02-15T08:10:59;28.17;;;22.73;;
8297;SDS011;4187;42.778;23.242;2023-02-15T08:13:46;22.77;;;19.53;;
8297;SDS011;4187;42.778;23.242;2023-02-15T08:16:22;25.83;;;20.80;;
8297;SDS011;4187;42.778;23.242;2023-02-15T08:18:50;29.43;;;20.80;;
8297;SDS011;4187;42.778;23.242;2023-02-15T08:21:17;26.13;;;20.07;;
8297;SDS011;4187;42.778;23.242;2023-02-15T08:23:44;27.57;;;20.97;;
8297;SDS011;4187;42.778;23.242;2023-02-15T08:26:12;28.33;;;22.43;;
8297;SDS011;4187;42.778;23.242;2023-02-15T08:28:39;24.83;;;20.13;;
8297;SDS011;4187;42.778;23.242;2023-02-15T08:31:08;22.53;;;16.60;;
8297;SDS011;4187;42.778;23.242;2023-02-15T08:33:38;20.03;;;15.63;;
8297;SDS011;4187;42.778;23.242;2023-02-15T08:36:10;18.40;;;15.77;;
8297;SDS011;4187;42.778;23.242;2023-02-15T08:38:37;16.70;;;13.97;;
8297;SDS011;4187;42.778;23.242;2023-02-15T08:41:09;15.13;;;13.37;;
8297;SDS011;4187;42.778;23.242;2023-02-15T08:43:37;16.27;;;13.53;;
8297;SDS011;4187;42.778;23.242;2023-02-15T08:46:04;15.43;;;13.83;;
8297;SDS011;4187;42.778;23.242;2023-02-15T08:48:33;16.03;;;13.13;;
8297;SDS011;4187;42.778;23.242;2023-02-15T08:51:04;17.33;;;14.73;;
8297;SDS011;4187;42.778;23.242;2023-02-15T08:53:32;15.53;;;13.87;;
8297;SDS011;4187;42.778;23.242;2023-02-15T08:55:59;15.83;;;13.73;;
8297;SDS011;4187;42.778;23.242;2023-02-15T08:58:27;19.20;;;15.87;;
8297;SDS011;4187;42.778;23.242;2023-02-15T09:00:55;17.70;;;15.63;;
8297;SDS011;4187;42.778;23.242;2023-02-15T09:03:22;16.23;;;14.53;;
8297;SDS011;4187;42.778;23.242;2023-02-15T09:05:53;14.83;;;12.70;;
8297;SDS011;4187;42.778;23.242;2023-02-15T09:08:23;16.57;;;14.23;;
8297;SDS011;4187;42.778;23.242;2023-02-15T09:10:50;16.97;;;12.93;;
8297;SDS011;4187;42.778;23.242;2023-02-15T09:13:17;16.30;;;13.27;;
8297;SDS011;4187;42.778;23.242;2023-02-15T09:15:45;20.00;;;15.50;;
8297;SDS011;4187;42.778;23.242;2023-02-15T09:18:12;19.07;;;14.43;;
8297;SDS011;4187;42.778;23.242;2023-02-15T09:20:42;17.80;;;15.03;;
8297;SDS011;4187;42.778;23.242;2023-02-15T09:23:12;16.17;;;13.93;;
8297;SDS011;4187;42.778;23.242;2023-02-15T09:25:40;19.10;;;15.07;;
8297;SDS011;4187;42.778;23.242;2023-02-15T09:28:07;16.00;;;14.27;;
8297;SDS011;4187;42.778;23.242;2023-02-15T09:30:34;19.03;;;15.37;;
8297;SDS011;4187;42.778;23.242;2023-02-15T09:33:01;18.77;;;15.60;;
8297;SDS011;4187;42.778;23.242;2023-02-15T09:35:28;26.20;;;18.60;;
8297;SDS011;4187;42.778;23.242;2023-02-15T09:37:55;20.47;;;15.33;;
8297;SDS011;4187;42.778;23.242;2023-02-15T09:40:23;21.63;;;15.80;;
8297;SDS011;4187;42.778;23.242;2023-02-15T09:42:54;18.17;;;15.30;;
8297;SDS011;4187;42.778;23.242;2023-02-15T09:45:36;19.53;;;16.07;;
8297;SDS011;4187;42.778;23.242;2023-02-15T09:48:23;21.73;;;17.13;;
8297;SDS011;4187;42.778;23.242;2023-02-15T09:51:06;21.87;;;17.30;;
8297;SDS011;4187;42.778;23.242;2023-02-15T09:53:51;22.30;;;17.60;;
8297;SDS011;4187;42.778;23.242;2023-02-15T09:56:30;23.13;;;18.43;;
8297;SDS011;4187;42.778;23.242;2023-02-15T09:59:03;25.27;;;17.43;;
8297;SDS011;4187;42.778;23.242;2023-02-15T10:01:40;20.17;;;16.90;;
8297;SDS011;4187;42.778;23.242;2023-02-15T10:04:17;20.57;;;16.20;;
8297;SDS011;4187;42.778;23.242;2023-02-15T10:06:56;21.93;;;17.37;;
8297;SDS011;4187;42.778;23.242;2023-02-15T10:09:35;21.30;;;15.30;;
8297;SDS011;4187;42.778;23.242;2023-02-15T10:12:21;22.07;;;17.87;;
8297;SDS011;4187;42.778;23.242;2023-02-15T10:15:10;23.13;;;18.50;;
8297;SDS011;4187;42.778;23.242;2023-02-15T10:17:52;22.67;;;17.17;;
8297;SDS011;4187;42.778;23.242;2023-02-15T10:20:34;22.60;;;18.77;;
8297;SDS011;4187;42.778;23.242;2023-02-15T10:23:11;21.00;;;17.37;;
8297;SDS011;4187;42.778;23.242;2023-02-15T10:25:53;21.30;;;17.97;;
8297;SDS011;4187;42.778;23.242;2023-02-15T10:28:31;22.27;;;17.77;;
8297;SDS011;4187;42.778;23.242;2023-02-15T10:31:07;19.43;;;16.67;;
8297;SDS011;4187;42.778;23.242;2023-02-15T10:33:43;20.67;;;17.37;;
8297;SDS011;4187;42.778;23.242;2023-02-15T10:36:18;22.77;;;17.37;;
8297;SDS011;4187;42.778;23.242;2023-02-15T10:39:01;19.10;;;16.33;;
8297;SDS011;4187;42.778;23.242;2023-02-15T10:41:35;19.30;;;16.27;;
8297;SDS011;4187;42.778;23.242;2023-02-15T10:44:17;20.60;;;15.80;;
8297;SDS011;4187;42.778;23.242;2023-02-15T10:47:08;19.47;;;15.83;;
8297;SDS011;4187;42.778;23.242;2023-02-15T10:49:56;19.67;;;15.70;;
8297;SDS011;4187;42.778;23.242;2023-02-15T10:52:42;17.73;;;15.50;;
8297;SDS011;4187;42.778;23.242;2023-02-15T10:55:24;20.53;;;16.50;;
8297;SDS011;4187;42.778;23.242;2023-02-15T10:58:03;20.17;;;16.27;;
8297;SDS011;4187;42.778;23.242;2023-02-15T11:00:40;22.97;;;18.00;;
8297;SDS011;4187;42.778;23.242;2023-02-15T11:03:18;25.93;;;17.10;;
8297;SDS011;4187;42.778;23.242;2023-02-15T11:05:58;19.73;;;15.83;;
8297;SDS011;4187;42.778;23.242;2023-02-15T11:08:31;17.87;;;15.13;;
8297;SDS011;4187;42.778;23.242;2023-02-15T11:11:02;23.37;;;17.80;;
8297;SDS011;4187;42.778;23.242;2023-02-15T11:13:34;20.57;;;17.53;;
8297;SDS011;4187;42.778;23.242;2023-02-15T11:16:07;22.50;;;18.27;;
8297;SDS011;4187;42.778;23.242;2023-02-15T11:18:41;22.50;;;19.40;;
8297;SDS011;4187;42.778;23.242;2023-02-15T11:21:17;22.37;;;19.23;;
8297;SDS011;4187;42.778;23.242;2023-02-15T11:23:48;21.77;;;18.00;;
8297;SDS011;4187;42.778;23.242;2023-02-15T11:26:19;22.17;;;18.20;;
8297;SDS011;4187;42.778;23.242;2023-02-15T11:28:55;21.87;;;18.30;;
8297;SDS011;4187;42.778;23.242;2023-02-15T11:31:30;19.67;;;16.83;;
8297;SDS011;4187;42.778;23.242;2023-02-15T11:34:11;21.30;;;18.23;;
8297;SDS011;4187;42.778;23.242;2023-02-15T11:36:43;20.53;;;16.93;;
8297;SDS011;4187;42.778;23.242;2023-02-15T11:39:12;20.37;;;17.87;;
8297;SDS011;4187;42.778;23.242;2023-02-15T11:41:44;20.63;;;17.87;;
8297;SDS011;4187;42.778;23.242;2023-02-15T11:44:20;22.63;;;18.47;;
8297;SDS011;4187;42.778;23.242;2023-02-15T11:46:53;19.67;;;17.23;;
8297;SDS011;4187;42.778;23.242;2023-02-15T11:49:22;19.17;;;17.17;;
8297;SDS011;4187;42.778;23.242;2023-02-15T11:51:57;20.10;;;17.13;;
8297;SDS011;4187;42.778;23.242;2023-02-15T11:54:27;20.88;;;16.17;;
8297;SDS011;4187;42.778;23.242;2023-02-15T11:56:59;19.58;;;17.08;;
8297;SDS011;4187;42.778;23.242;2023-02-15T11:59:37;20.60;;;17.73;;
8297;SDS011;4187;42.778;23.242;2023-02-15T12:02:15;20.85;;;16.80;;
8297;SDS011;4187;42.778;23.242;2023-02-15T12:04:47;18.17;;;16.15;;
8297;SDS011;4187;42.778;23.242;2023-02-15T12:07:20;19.52;;;17.40;;
8297;SDS011;4187;42.778;23.242;2023-02-15T12:09:52;19.40;;;17.35;;
8297;SDS011;4187;42.778;23.242;2023-02-15T12:12:27;18.52;;;16.05;;
8297;SDS011;4187;42.778;23.242;2023-02-15T12:14:55;23.15;;;17.17;;
8297;SDS011;4187;42.778;23.242;2023-02-15T12:17:26;18.35;;;16.38;;
8297;SDS011;4187;42.778;23.242;2023-02-15T12:19:55;20.17;;;17.70;;
8297;SDS011;4187;42.778;23.242;2023-02-15T12:22:25;19.23;;;16.60;;
8297;SDS011;4187;42.778;23.242;2023-02-15T12:24:54;20.30;;;16.45;;
8297;SDS011;4187;42.778;23.242;2023-02-15T12:27:23;20.05;;;17.08;;
8297;SDS011;4187;42.778;23.242;2023-02-15T12:29:53;17.50;;;15.52;;
8297;SDS011;4187;42.778;23.242;2023-02-15T12:32:25;19.10;;;17.15;;
8297;SDS011;4187;42.778;23.242;2023-02-15T12:34:55;15.98;;;14.30;;
8297;SDS011;4187;42.778;23.242;2023-02-15T12:37:27;20.02;;;17.65;;
8297;SDS011;4187;42.778;23.242;2023-02-15T12:39:57;19.48;;;17.38;;
8297;SDS011;4187;42.778;23.242;2023-02-15T12:42:26;20.10;;;17.90;;
8297;SDS011;4187;42.778;23.242;2023-02-15T12:44:56;19.02;;;16.05;;
8297;SDS011;4187;42.778;23.242;2023-02-15T12:47:26;19.52;;;17.42;;
8297;SDS011;4187;42.778;23.242;2023-02-15T12:50:05;19.10;;;16.38;;
8297;SDS011;4187;42.778;23.242;2023-02-15T12:52:41;20.73;;;16.02;;
8297;SDS011;4187;42.778;23.242;2023-02-15T12:55:10;19.15;;;16.77;;
8297;SDS011;4187;42.778;23.242;2023-02-15T12:57:43;18.17;;;16.23;;
8297;SDS011;4187;42.778;23.242;2023-02-15T13:00:24;17.45;;;15.52;;
8297;SDS011;4187;42.778;23.242;2023-02-15T13:02:55;18.92;;;15.93;;
8297;SDS011;4187;42.778;23.242;2023-02-15T13:05:25;19.00;;;16.30;;
8297;SDS011;4187;42.778;23.242;2023-02-15T13:07:56;19.25;;;17.15;;
8297;SDS011;4187;42.778;23.242;2023-02-15T13:10:25;20.45;;;18.25;;
8297;SDS011;4187;42.778;23.242;2023-02-15T13:12:54;20.80;;;18.10;;
8297;SDS011;4187;42.778;23.242;2023-02-15T13:15:23;24.88;;;22.17;;
8297;SDS011;4187;42.778;23.242;2023-02-15T13:17:56;23.13;;;20.63;;
8297;SDS011;4187;42.778;23.242;2023-02-15T13:20:24;21.27;;;18.13;;
8297;SDS011;4187;42.778;23.242;2023-02-15T13:22:54;20.55;;;18.35;;
8297;SDS011;4187;42.778;23.242;2023-02-15T13:25:26;20.58;;;17.50;;
8297;SDS011;4187;42.778;23.242;2023-02-15T13:27:57;23.73;;;17.05;;
8297;SDS011;4187;42.778;23.242;2023-02-15T13:30:28;19.92;;;17.70;;
8297;SDS011;4187;42.778;23.242;2023-02-15T13:33:02;20.77;;;17.60;;
8297;SDS011;4187;42.778;23.242;2023-02-15T13:35:35;19.42;;;17.40;;
8297;SDS011;4187;42.778;23.242;2023-02-15T13:38:11;20.95;;;18.75;;
8297;SDS011;4187;42.778;23.242;2023-02-15T13:40:48;20.55;;;17.23;;
8297;SDS011;4187;42.778;23.242;2023-02-15T13:43:27;17.85;;;16.05;;
8297;SDS011;4187;42.778;23.242;2023-02-15T13:46:10;19.33;;;16.75;;
8297;SDS011;4187;42.778;23.242;2023-02-15T13:48:49;19.38;;;17.38;;
8297;SDS011;4187;42.778;23.242;2023-02-15T13:51:25;20.13;;;17.40;;
8297;SDS011;4187;42.778;23.242;2023-02-15T13:54:08;20.83;;;18.73;;
8297;SDS011;4187;42.778;23.242;2023-02-15T13:56:48;21.02;;;18.20;;
8297;SDS011;4187;42.778;23.242;2023-02-15T13:59:37;19.95;;;17.67;;
8297;SDS011;4187;42.778;23.242;2023-02-15T14:02:23;18.08;;;15.93;;
8297;SDS011;4187;42.778;23.242;2023-02-15T14:05:16;18.00;;;16.05;;
8297;SDS011;4187;42.778;23.242;2023-02-15T14:07:53;21.77;;;16.40;;
8297;SDS011;4187;42.778;23.242;2023-02-15T14:10:29;21.90;;;17.38;;
8297;SDS011;4187;42.778;23.242;2023-02-15T14:13:09;18.88;;;16.23;;
8297;SDS011;4187;42.778;23.242;2023-02-15T14:15:58;20.38;;;16.40;;
8297;SDS011;4187;42.778;23.242;2023-02-15T14:18:31;19.60;;;16.80;;
8297;SDS011;4187;42.778;23.242;2023-02-15T14:21:06;20.38;;;16.65;;
8297;SDS011;4187;42.778;23.242;2023-02-15T14:23:42;20.98;;;17.80;;
8297;SDS011;4187;42.778;23.242;2023-02-15T14:26:20;20.90;;;18.70;;
8297;SDS011;4187;42.778;23.242;2023-02-15T14:28:58;20.25;;;17.50;;
8297;SDS011;4187;42.778;23.242;2023-02-15T14:31:34;19.30;;;17.27;;
8297;SDS011;4187;42.778;23.242;2023-02-15T14:34:07;18.35;;;16.45;;
8297;SDS011;4187;42.778;23.242;2023-02-15T14:36:45;19.35;;;17.25;;
8297;SDS011;4187;42.778;23.242;2023-02-15T14:39:15;19.75;;;17.27;;
8297;SDS011;4187;42.778;23.242;2023-02-15T14:42:10;20.35;;;18.27;;
8297;SDS011;4187;42.778;23.242;2023-02-15T14:44:45;20.15;;;17.45;;
8297;SDS011;4187;42.778;23.242;2023-02-15T14:47:19;22.73;;;17.83;;
8297;SDS011;4187;42.778;23.242;2023-02-15T14:49:51;19.40;;;17.33;;
8297;SDS011;4187;42.778;23.242;2023-02-15T14:52:20;19.73;;;17.73;;
8297;SDS011;4187;42.778;23.242;2023-02-15T14:54:53;20.63;;;17.98;;
8297;SDS011;4187;42.778;23.242;2023-02-15T14:57:25;24.50;;;18.63;;
8297;SDS011;4187;42.778;23.242;2023-02-15T15:02:57;21.33;;;18.50;;
8297;SDS011;4187;42.778;23.242;2023-02-15T15:05:28;21.58;;;18.67;;
8297;SDS011;4187;42.778;23.242;2023-02-15T15:08:01;21.58;;;18.33;;
8297;SDS011;4187;42.778;23.242;2023-02-15T15:10:34;22.73;;;19.50;;